Hlavní strana
METAR-TAF:

METAR-TAF

Letiště :

Hunter Army Airfield / Fort Stewart

Savannah, Georgie, Spojené státy americké

zeměpisná šířka: 32-01N, zeměpisná délka: 081-09W, výška: 13 m

Aktuální stav počasí

Zpráva byla vytvořena před 1 hodinou a 13 minutami, v 09:56 UTC
Bezvětří
Teplota 20°C
Vlhkost vzduchu 94%
Tlak 1020 hPa
Viditelnost: 16.1 km
Jasno

METAR: KSVN 240956Z AUTO 00000KT 10SM CLR 20/19 A3013 RMK AO2 SLP206 T01990185 $

Čas: 07:09 (11:09 UTC)

Předpověď počasí

Zpráva byla vytvořena před 7 hodinami a 9 minutami, v 04:00 UTC
Předpověď platná od 24 v 04 UTC do 25 v 10 UTC
Jižní vítr 6 kt
Viditelnost 10 km a více
Jasno

TAF: KSVN 240400Z 2404/2510 19006KT 9999 SKC QNH3000INS TX35/2421Z TN20/2411Z

Stav a předpovědi počasí z více než 4 000 letišť (zprávy METAR a TAF).

Červené a žluté tečky na mapě představují dostupné meteorologické stanice.

Když kurzor umístíte na tečku, zobrazí se název stanice.

Pak kliknutím zobrazíte stav a předpověď počasí.

Chcete-li změnit mapu, kliknutím na zelené tlačítko se znaménkem +mapu přiblížíte, kliknutím na zelené tlačítko se znaménkem – mapu oddálíte a kliknutím na zelené šipky přejdete na sousední mapy.


METAR-TAF: